createdAt,value
2019-03-13T00:02:29.591Z,1.05
2019-03-13T00:04:56.871Z,1.27
2019-03-13T00:07:23.780Z,0.90
2019-03-13T00:09:50.790Z,0.98
2019-03-13T00:12:17.856Z,0.90
2019-03-13T00:14:44.961Z,1.02
2019-03-13T00:17:11.886Z,0.80
2019-03-13T00:19:39.129Z,0.80
2019-03-13T00:22:09.890Z,0.80
2019-03-13T00:24:37.009Z,0.80
2019-03-13T00:27:04.090Z,1.00
2019-03-13T00:29:31.172Z,0.93
2019-03-13T00:31:59.724Z,0.85
2019-03-13T00:34:26.869Z,1.00
2019-03-13T00:36:53.874Z,1.15
2019-03-13T00:39:20.906Z,1.50
2019-03-13T00:41:47.883Z,1.20
2019-03-13T00:44:14.899Z,1.15
2019-03-13T00:46:41.978Z,1.30
2019-03-13T00:49:09.105Z,1.20
2019-03-13T00:51:37.076Z,1.17
2019-03-13T00:54:04.225Z,1.15
2019-03-13T00:56:31.223Z,1.57
2019-03-13T00:58:58.308Z,1.30
2019-03-13T01:01:27.237Z,1.20
2019-03-13T01:03:56.228Z,1.42
2019-03-13T01:06:25.220Z,1.00
2019-03-13T01:08:52.332Z,1.30
2019-03-13T01:11:19.399Z,1.10
2019-03-13T01:13:46.478Z,1.00
2019-03-13T01:16:13.664Z,1.00
2019-03-13T01:18:40.700Z,1.10
2019-03-13T01:21:07.795Z,1.10
2019-03-13T01:23:34.861Z,1.10
2019-03-13T01:26:01.910Z,1.00
2019-03-13T01:28:28.989Z,1.02
2019-03-13T01:31:00.820Z,0.90
2019-03-13T01:33:28.030Z,1.00
2019-03-13T01:35:57.013Z,0.80
2019-03-13T01:38:24.077Z,0.80
2019-03-13T01:40:51.076Z,1.05
2019-03-13T01:43:18.208Z,1.00
2019-03-13T01:45:45.265Z,1.05
2019-03-13T01:48:12.328Z,0.85
2019-03-13T01:50:39.429Z,1.00
2019-03-13T01:53:06.467Z,1.02
2019-03-13T01:55:33.369Z,1.10
2019-03-13T01:58:00.337Z,1.00
2019-03-13T02:00:27.503Z,0.80
2019-03-13T02:02:54.641Z,1.00
2019-03-13T02:05:21.629Z,1.10
2019-03-13T02:07:48.676Z,0.93
2019-03-13T02:10:16.850Z,0.93
2019-03-13T02:12:43.844Z,1.40
2019-03-13T02:15:11.265Z,0.90
2019-03-13T02:17:38.216Z,0.95
2019-03-13T02:20:05.454Z,1.00
2019-03-13T02:22:32.574Z,0.95
2019-03-13T02:24:59.643Z,0.85
2019-03-13T02:27:26.693Z,0.90
2019-03-13T02:29:53.868Z,0.70
2019-03-13T02:32:21.118Z,1.00
2019-03-13T02:34:48.243Z,0.80
2019-03-13T02:37:15.280Z,0.90
2019-03-13T02:39:42.247Z,1.00
2019-03-13T02:42:09.180Z,0.88
2019-03-13T02:44:36.263Z,0.93
2019-03-13T02:47:03.386Z,0.90
2019-03-13T02:49:30.480Z,0.80
2019-03-13T02:51:57.541Z,1.00
2019-03-13T02:54:24.646Z,0.88
2019-03-13T02:56:51.742Z,0.90
2019-03-13T02:59:18.910Z,0.78
2019-03-13T03:01:51.098Z,0.90
2019-03-13T03:04:18.048Z,0.80
2019-03-13T03:06:45.115Z,0.80
2019-03-13T03:09:12.167Z,0.80
2019-03-13T03:11:39.184Z,0.90
2019-03-13T03:14:06.199Z,0.85
2019-03-13T03:16:33.271Z,0.80
2019-03-13T03:19:00.253Z,1.00
2019-03-13T03:21:27.242Z,0.80
2019-03-13T03:23:54.421Z,0.90
2019-03-13T03:26:21.510Z,1.00
2019-03-13T03:28:48.414Z,0.80
2019-03-13T03:31:15.436Z,0.80
2019-03-13T03:33:56.603Z,0.80
2019-03-13T03:36:23.691Z,0.90
2019-03-13T03:38:50.763Z,0.78
2019-03-13T03:41:17.781Z,0.90
2019-03-13T03:43:44.791Z,0.90
2019-03-13T03:46:11.837Z,0.85
2019-03-13T03:48:38.994Z,0.90
2019-03-13T03:51:06.009Z,0.90
2019-03-13T03:53:33.086Z,1.05
2019-03-13T03:56:00.207Z,0.90
2019-03-13T03:58:29.279Z,0.98
2019-03-13T04:03:24.594Z,0.80
2019-03-13T04:05:51.604Z,0.90
2019-03-13T04:08:18.579Z,1.10
2019-03-13T04:10:45.974Z,1.12
2019-03-13T04:13:13.372Z,0.90
2019-03-13T04:15:40.433Z,1.00
2019-03-13T04:18:07.443Z,1.00
2019-03-13T04:20:34.532Z,0.90
2019-03-13T04:23:01.574Z,0.90
2019-03-13T04:25:33.135Z,0.93
2019-03-13T04:28:00.195Z,1.10
2019-03-13T04:30:27.390Z,0.80
2019-03-13T04:32:54.453Z,0.98
2019-03-13T04:35:21.427Z,0.95
2019-03-13T04:37:48.554Z,1.00
2019-03-13T04:40:15.513Z,1.05
2019-03-13T04:42:42.563Z,0.90
2019-03-13T04:45:09.925Z,0.88
2019-03-13T04:47:36.878Z,0.90
2019-03-13T04:50:04.029Z,1.00
2019-03-13T04:52:30.976Z,1.07
2019-03-13T04:54:57.956Z,1.10
2019-03-13T04:57:25.366Z,1.32
2019-03-13T04:59:52.424Z,1.22
2019-03-13T05:02:19.405Z,1.20
2019-03-13T05:04:46.378Z,1.50
2019-03-13T05:07:13.375Z,1.42
2019-03-13T05:09:40.435Z,1.25
2019-03-13T05:12:07.337Z,1.60
2019-03-13T05:14:35.468Z,1.25
2019-03-13T05:17:02.378Z,1.52
2019-03-13T05:19:29.535Z,1.75
2019-03-13T05:21:56.496Z,1.45
2019-03-13T05:24:23.594Z,1.20
2019-03-13T05:26:50.584Z,1.50
2019-03-13T05:29:17.675Z,1.52
2019-03-13T05:31:47.809Z,1.40
2019-03-13T05:34:14.925Z,1.20
2019-03-13T05:36:41.894Z,1.75
2019-03-13T05:39:08.943Z,1.62
2019-03-13T05:41:36.009Z,1.30
2019-03-13T05:44:03.016Z,1.80
2019-03-13T05:46:30.327Z,1.80
2019-03-13T05:48:57.592Z,2.00
2019-03-13T05:51:24.520Z,1.87
2019-03-13T05:53:51.550Z,2.00
2019-03-13T05:56:18.625Z,2.05
2019-03-13T05:58:45.568Z,2.40
2019-03-13T06:01:12.476Z,2.12
2019-03-13T06:03:39.528Z,2.20
2019-03-13T06:06:06.589Z,1.80
2019-03-13T06:08:33.651Z,1.98
2019-03-13T06:11:00.552Z,1.95
2019-03-13T06:13:27.630Z,2.47
2019-03-13T06:15:54.777Z,2.50
2019-03-13T06:18:21.841Z,2.30
2019-03-13T06:20:48.992Z,2.95
2019-03-13T06:23:16.144Z,2.20
2019-03-13T06:25:43.032Z,2.50
2019-03-13T06:28:10.146Z,2.35
2019-03-13T06:30:37.231Z,2.25
2019-03-13T06:33:04.284Z,2.58
2019-03-13T06:35:31.385Z,2.35
2019-03-13T06:37:58.360Z,2.45
2019-03-13T06:40:25.480Z,2.40
2019-03-13T06:42:52.463Z,2.45
2019-03-13T06:45:19.509Z,2.00
2019-03-13T06:47:46.460Z,1.85
2019-03-13T06:50:15.246Z,1.82
2019-03-13T06:52:42.254Z,2.12
2019-03-13T06:55:09.354Z,2.00
2019-03-13T06:57:36.483Z,1.60
2019-03-13T07:00:15.501Z,1.60
2019-03-13T07:02:44.403Z,1.92
2019-03-13T07:05:15.588Z,1.98
2019-03-13T07:07:50.339Z,2.05
2019-03-13T07:10:31.287Z,1.90
2019-03-13T07:13:03.124Z,2.15
2019-03-13T07:15:31.987Z,1.77
2019-03-13T07:18:00.799Z,3.15
2019-03-13T07:20:29.939Z,1.37
2019-03-13T07:23:10.902Z,2.60
2019-03-13T07:25:56.820Z,1.80
2019-03-13T07:28:34.933Z,1.90
2019-03-13T07:31:20.587Z,1.90
2019-03-13T07:33:52.464Z,1.50
2019-03-13T07:36:24.152Z,1.40
2019-03-13T07:38:58.947Z,1.90
2019-03-13T07:41:27.920Z,1.92
2019-03-13T07:44:05.924Z,1.75
2019-03-13T07:46:43.706Z,1.65
2019-03-13T07:49:15.624Z,1.98
2019-03-13T07:51:59.941Z,1.72
2019-03-13T07:54:29.058Z,1.80
2019-03-13T07:56:57.945Z,2.33
2019-03-13T07:59:42.240Z,2.02
2019-03-13T08:02:27.829Z,2.20
2019-03-13T08:04:59.312Z,2.50
2019-03-13T08:07:28.335Z,2.00
2019-03-13T08:10:03.073Z,2.40
2019-03-13T08:12:44.334Z,2.10
2019-03-13T08:15:22.424Z,2.37
2019-03-13T08:17:54.124Z,2.17
2019-03-13T08:20:22.913Z,1.75
2019-03-13T08:22:55.085Z,2.37
2019-03-13T08:25:29.951Z,2.80
2019-03-13T08:28:02.131Z,1.90
2019-03-13T08:30:39.916Z,3.35
2019-03-13T08:33:08.968Z,2.10
2019-03-13T08:35:55.989Z,2.02
2019-03-13T08:38:24.952Z,1.85
2019-03-13T08:40:59.818Z,2.05
2019-03-13T08:43:28.765Z,1.65
2019-03-13T08:46:00.127Z,2.20
2019-03-13T08:48:34.962Z,1.95
2019-03-13T08:51:06.819Z,1.70
2019-03-13T08:53:48.020Z,1.85
2019-03-13T08:56:17.098Z,1.55
2019-03-13T08:58:46.073Z,1.95
2019-03-13T09:01:23.558Z,1.57
2019-03-13T09:03:55.440Z,2.08
2019-03-13T09:06:24.545Z,1.87
2019-03-13T09:08:56.295Z,1.65
2019-03-13T09:11:28.011Z,1.60
2019-03-13T09:13:56.943Z,1.82
2019-03-13T09:16:29.012Z,1.60
2019-03-13T09:18:59.979Z,1.50
2019-03-13T09:21:33.631Z,1.70
2019-03-13T09:24:08.603Z,1.67
2019-03-13T09:26:40.544Z,1.92
2019-03-13T09:29:09.445Z,1.75
2019-03-13T09:31:54.937Z,1.85
2019-03-13T09:34:26.980Z,1.82
2019-03-13T09:37:10.617Z,1.47
2019-03-13T09:39:39.545Z,2.00
2019-03-13T09:42:08.605Z,1.37
2019-03-13T09:44:46.797Z,1.65
2019-03-13T09:47:24.376Z,1.50
2019-03-13T09:50:08.426Z,1.70
2019-03-13T09:52:54.151Z,2.12
2019-03-13T09:55:23.121Z,1.47
2019-03-13T09:57:52.011Z,1.52
2019-03-13T10:00:24.017Z,1.47
2019-03-13T10:03:07.744Z,1.50
2019-03-13T10:05:39.429Z,1.95
2019-03-13T10:08:17.367Z,1.50
2019-03-13T10:10:49.340Z,1.90
2019-03-13T10:13:34.834Z,1.32
2019-03-13T10:16:09.849Z,1.70
2019-03-13T10:18:38.824Z,1.50
2019-03-13T10:21:07.813Z,2.00
2019-03-13T10:23:36.728Z,2.00
2019-03-13T10:26:08.134Z,2.00
2019-03-13T10:28:37.083Z,1.75
2019-03-13T10:31:11.961Z,2.75
2019-03-13T10:33:56.026Z,2.27
2019-03-13T10:36:24.852Z,2.15
2019-03-13T10:39:06.011Z,1.50
2019-03-13T10:41:34.918Z,2.17
2019-03-13T10:44:09.823Z,2.03
2019-03-13T10:46:38.682Z,1.50
2019-03-13T10:49:13.250Z,1.70
2019-03-13T10:51:42.220Z,1.63
2019-03-13T10:54:13.748Z,1.75
2019-03-13T10:56:42.761Z,1.50
2019-03-13T10:59:20.813Z,1.90
2019-03-13T11:02:01.694Z,1.57
2019-03-13T11:04:30.533Z,1.47
2019-03-13T11:07:08.468Z,2.00
2019-03-13T11:09:37.282Z,1.60
2019-03-13T11:12:23.092Z,1.50
2019-03-13T11:14:51.888Z,1.60
2019-03-13T11:17:29.645Z,1.70
2019-03-13T11:20:13.682Z,1.70
2019-03-13T11:22:51.817Z,2.00
2019-03-13T11:25:26.821Z,2.50
2019-03-13T11:28:11.139Z,2.15
2019-03-13T11:30:56.349Z,2.00
2019-03-13T11:33:30.943Z,1.80
2019-03-13T11:36:09.604Z,2.53
2019-03-13T11:38:47.452Z,1.63
2019-03-13T11:41:22.488Z,1.80
2019-03-13T11:44:00.741Z,1.70
2019-03-13T11:46:48.264Z,1.67
2019-03-13T11:49:35.136Z,1.90
2019-03-13T11:52:07.057Z,1.80
2019-03-13T11:54:47.740Z,2.80
2019-03-13T11:57:22.494Z,2.17
2019-03-13T11:59:51.431Z,2.07
2019-03-13T12:02:23.390Z,1.82
2019-03-13T12:05:08.860Z,1.73
2019-03-13T12:07:54.265Z,1.93
2019-03-13T12:10:39.869Z,2.13
2019-03-13T12:13:11.781Z,1.87
2019-03-13T12:15:43.249Z,1.80
2019-03-13T12:18:15.435Z,1.70
2019-03-13T12:21:00.099Z,2.20
2019-03-13T12:23:31.885Z,1.77
2019-03-13T12:26:03.606Z,1.60
2019-03-13T12:28:32.668Z,1.90
2019-03-13T12:31:18.518Z,2.40
2019-03-13T12:33:47.449Z,1.53
2019-03-13T12:36:16.305Z,1.50
2019-03-13T12:38:54.446Z,1.70
2019-03-13T12:41:40.191Z,2.03
2019-03-13T12:44:26.012Z,1.50
2019-03-13T12:47:13.063Z,2.93
2019-03-13T12:49:42.000Z,1.80
2019-03-13T12:52:20.461Z,1.70
2019-03-13T12:54:51.900Z,1.32
2019-03-13T12:57:22.014Z,1.80
2019-03-13T12:59:53.705Z,1.60
2019-03-13T13:02:25.548Z,1.60
2019-03-13T13:04:54.387Z,1.60
2019-03-13T13:07:23.504Z,1.20
2019-03-13T13:09:55.368Z,2.03
2019-03-13T13:12:40.716Z,1.73
2019-03-13T13:15:26.300Z,1.40
2019-03-13T13:18:03.932Z,1.43
2019-03-13T13:20:30.973Z,1.73
2019-03-13T13:22:57.983Z,1.70
2019-03-13T13:25:25.066Z,1.50
2019-03-13T13:27:52.155Z,1.20
2019-03-13T13:30:19.340Z,1.70
2019-03-13T13:32:46.454Z,1.37
2019-03-13T13:35:13.456Z,1.63
2019-03-13T13:37:40.527Z,1.90
2019-03-13T13:40:07.913Z,1.42
2019-03-13T13:42:35.063Z,1.13
2019-03-13T13:45:02.216Z,1.40
2019-03-13T13:47:29.261Z,2.07
2019-03-13T13:49:59.966Z,1.35
2019-03-13T13:52:25.056Z,1.30
2019-03-13T13:54:52.076Z,1.53
2019-03-13T13:57:19.087Z,1.23
2019-03-13T13:59:46.313Z,1.40
2019-03-13T14:02:13.293Z,2.00
2019-03-13T14:04:40.344Z,1.70
2019-03-13T14:07:07.489Z,1.30
2019-03-13T14:09:34.486Z,1.43
2019-03-13T14:12:01.604Z,1.60
2019-03-13T14:14:28.622Z,1.50
2019-03-13T14:16:55.654Z,1.40
2019-03-13T14:19:24.381Z,1.20
2019-03-13T14:21:51.427Z,1.22
2019-03-13T14:24:18.379Z,1.20
2019-03-13T14:26:45.462Z,2.02
2019-03-13T14:29:13.820Z,1.30
2019-03-13T14:31:40.926Z,1.12
2019-03-13T14:34:07.984Z,1.20
2019-03-13T14:36:36.277Z,1.20
2019-03-13T14:39:06.175Z,1.50
2019-03-13T14:41:33.394Z,1.50
2019-03-13T14:44:00.575Z,1.10
2019-03-13T14:46:28.011Z,1.83
2019-03-13T14:48:55.271Z,1.70
2019-03-13T14:51:22.290Z,1.27
2019-03-13T14:53:49.251Z,1.40
2019-03-13T14:56:16.309Z,1.35
2019-03-13T14:58:43.400Z,2.10
2019-03-13T15:01:10.577Z,1.55
2019-03-13T15:03:37.559Z,1.33
2019-03-13T15:06:04.590Z,1.83
2019-03-13T15:08:31.594Z,2.23
2019-03-13T15:10:58.688Z,2.05
2019-03-13T15:13:25.620Z,1.77
2019-03-13T15:15:52.681Z,1.75
2019-03-13T15:18:19.674Z,1.65
2019-03-13T15:20:46.780Z,1.85
2019-03-13T15:23:13.880Z,1.57
2019-03-13T15:25:40.867Z,2.30
2019-03-13T15:28:07.951Z,1.87
2019-03-13T15:30:35.099Z,1.95
2019-03-13T15:33:02.065Z,1.67
2019-03-13T15:35:29.088Z,2.33
2019-03-13T15:37:56.059Z,2.20
2019-03-13T15:40:23.133Z,2.73
2019-03-13T15:42:50.277Z,2.22
2019-03-13T15:45:18.247Z,2.15
2019-03-13T15:47:45.277Z,2.03
2019-03-13T15:50:13.142Z,1.47
2019-03-13T15:52:40.122Z,2.10
2019-03-13T15:55:08.270Z,2.08
2019-03-13T15:57:35.284Z,1.50
2019-03-13T16:00:03.382Z,1.65
2019-03-13T16:02:30.361Z,1.57
2019-03-13T16:04:57.301Z,2.12
2019-03-13T16:07:24.315Z,3.17
2019-03-13T16:09:51.312Z,1.70
2019-03-13T16:12:18.464Z,1.75
2019-03-13T16:14:45.503Z,2.20
2019-03-13T16:17:12.481Z,2.00
2019-03-13T16:19:39.549Z,1.95
2019-03-13T16:22:07.723Z,1.75
2019-03-13T16:24:34.860Z,1.60
2019-03-13T16:27:02.044Z,1.70
2019-03-13T16:29:30.870Z,1.67
2019-03-13T16:31:58.073Z,1.50
2019-03-13T16:34:25.012Z,2.20
2019-03-13T16:36:52.093Z,1.92
2019-03-13T16:39:19.311Z,1.80
2019-03-13T16:41:46.329Z,1.40
2019-03-13T16:44:13.330Z,1.40
2019-03-13T16:46:40.417Z,1.40
2019-03-13T16:49:07.513Z,1.50
2019-03-13T16:51:34.559Z,1.77
2019-03-13T16:54:01.560Z,1.80
2019-03-13T16:56:28.507Z,1.50
2019-03-13T16:58:55.656Z,1.55
2019-03-13T17:01:22.713Z,1.80
2019-03-13T17:03:49.811Z,1.70
2019-03-13T17:06:16.897Z,1.80
2019-03-13T17:08:43.918Z,2.27
2019-03-13T17:11:10.980Z,1.87
2019-03-13T17:13:37.921Z,2.27
2019-03-13T17:16:04.999Z,1.70
2019-03-13T17:18:32.072Z,1.95
2019-03-13T17:20:59.198Z,1.90
2019-03-13T17:23:26.165Z,2.08
2019-03-13T17:25:53.171Z,1.98
2019-03-13T17:28:21.240Z,2.02
2019-03-13T17:30:48.439Z,1.70
2019-03-13T17:33:15.579Z,1.80
2019-03-13T17:35:42.661Z,1.60
2019-03-13T17:38:09.797Z,2.35
2019-03-13T17:40:37.671Z,1.53
2019-03-13T17:43:04.736Z,1.67
2019-03-13T17:45:31.793Z,1.50
2019-03-13T17:47:59.021Z,1.50
2019-03-13T17:50:26.057Z,1.37
2019-03-13T17:52:53.053Z,1.40
2019-03-13T17:55:20.240Z,2.37
2019-03-13T17:57:47.195Z,1.75
2019-03-13T18:00:17.068Z,1.60
2019-03-13T18:02:44.020Z,1.55
2019-03-13T18:05:11.265Z,1.50
2019-03-13T18:07:38.526Z,1.47
2019-03-13T18:10:09.628Z,1.35
2019-03-13T18:12:36.812Z,1.95
2019-03-13T18:15:04.829Z,1.95
2019-03-13T18:17:31.804Z,1.50
2019-03-13T18:19:58.970Z,1.40
2019-03-13T18:22:26.176Z,1.30
2019-03-13T18:24:53.284Z,2.02
2019-03-13T18:27:20.388Z,1.47
2019-03-13T18:29:47.739Z,1.50
2019-03-13T18:32:15.780Z,2.05
2019-03-13T18:34:43.161Z,1.75
2019-03-13T18:37:10.260Z,1.50
2019-03-13T18:39:37.343Z,1.20
2019-03-13T18:42:04.485Z,1.20
2019-03-13T18:44:31.479Z,1.40
2019-03-13T18:46:58.445Z,0.90
2019-03-13T18:49:26.264Z,1.20
2019-03-13T18:51:53.309Z,1.10
2019-03-13T18:54:20.352Z,1.15
2019-03-13T18:56:47.419Z,1.00
2019-03-13T18:59:14.458Z,1.12
2019-03-13T19:01:41.586Z,1.00
2019-03-13T19:04:08.667Z,1.10
2019-03-13T19:06:35.640Z,0.98
2019-03-13T19:09:03.898Z,0.80
2019-03-13T19:11:31.061Z,0.80
2019-03-13T19:13:58.370Z,0.70
2019-03-13T19:16:25.505Z,0.90
2019-03-13T19:18:52.431Z,0.80
2019-03-13T19:21:19.441Z,1.10
2019-03-13T19:23:46.679Z,0.80
2019-03-13T19:26:13.748Z,0.95
2019-03-13T19:28:40.723Z,0.95
2019-03-13T19:31:07.777Z,0.90
2019-03-13T19:33:34.729Z,0.90
2019-03-13T19:36:02.008Z,1.10
2019-03-13T19:38:29.069Z,0.90
2019-03-13T19:40:56.117Z,1.20
2019-03-13T19:43:23.127Z,1.10
2019-03-13T19:45:50.125Z,1.05
2019-03-13T19:48:17.170Z,1.15
2019-03-13T19:50:44.566Z,1.10
2019-03-13T19:53:11.543Z,1.00
2019-03-13T19:55:38.698Z,1.00
2019-03-13T19:58:05.892Z,1.17
2019-03-13T20:00:33.035Z,1.05
2019-03-13T20:03:00.959Z,1.00
2019-03-13T20:05:28.266Z,1.12
2019-03-13T20:07:55.448Z,1.40
2019-03-13T20:10:23.388Z,1.42
2019-03-13T20:12:50.471Z,1.10
2019-03-13T20:15:18.807Z,1.02
2019-03-13T20:17:45.858Z,1.30
2019-03-13T20:20:14.179Z,1.10
2019-03-13T20:22:41.448Z,1.20
2019-03-13T20:25:09.597Z,1.00
2019-03-13T20:27:36.632Z,1.65
2019-03-13T20:30:04.047Z,1.45
2019-03-13T20:32:31.238Z,1.80
2019-03-13T20:34:58.434Z,1.57
2019-03-13T20:37:26.055Z,1.55
2019-03-13T20:39:53.209Z,1.72
2019-03-13T20:42:20.551Z,1.80
2019-03-13T20:44:47.690Z,1.60
2019-03-13T20:47:15.003Z,1.62
2019-03-13T20:49:42.115Z,1.82
2019-03-13T20:52:09.216Z,1.80
2019-03-13T20:54:36.481Z,1.95
2019-03-13T20:57:03.571Z,1.70
2019-03-13T20:59:32.596Z,1.27
2019-03-13T21:02:00.431Z,1.70
2019-03-13T21:04:27.808Z,1.80
2019-03-13T21:06:54.901Z,0.90
2019-03-13T21:09:21.902Z,1.32
2019-03-13T21:11:49.944Z,1.15
2019-03-13T21:14:17.275Z,2.20
2019-03-13T21:16:44.396Z,2.40
2019-03-13T21:19:11.527Z,1.55
2019-03-13T21:21:40.094Z,1.32
2019-03-13T21:24:07.173Z,1.70
2019-03-13T21:26:34.255Z,1.60
2019-03-13T21:29:01.303Z,1.40
2019-03-13T21:31:28.357Z,1.30
2019-03-13T21:33:55.414Z,1.40
2019-03-13T21:36:22.595Z,1.65
2019-03-13T21:38:50.725Z,2.15
2019-03-13T21:41:18.277Z,1.90
2019-03-13T21:43:46.396Z,2.70
2019-03-13T21:46:16.464Z,1.80
2019-03-13T21:48:49.578Z,1.75
2019-03-13T21:51:28.785Z,1.72
2019-03-13T21:54:08.033Z,1.42
2019-03-13T21:56:44.097Z,1.20
2019-03-13T21:59:26.865Z,1.35
2019-03-13T22:01:57.967Z,1.60
2019-03-13T22:04:33.827Z,1.60
2019-03-13T22:07:05.195Z,1.42
2019-03-13T22:09:32.821Z,1.60
2019-03-13T22:12:05.484Z,1.32
2019-03-13T22:14:47.189Z,1.50
2019-03-13T22:17:24.961Z,1.72
2019-03-13T22:19:51.940Z,1.87
2019-03-13T22:22:18.967Z,1.70
2019-03-13T22:24:46.139Z,1.50
2019-03-13T22:27:14.830Z,1.70
2019-03-13T22:29:42.054Z,1.50
2019-03-13T22:32:09.044Z,1.50
2019-03-13T22:34:36.288Z,1.60
2019-03-13T22:37:03.435Z,1.40
2019-03-13T22:39:30.599Z,1.40
2019-03-13T22:41:58.546Z,1.20
2019-03-13T22:44:26.033Z,1.17
2019-03-13T22:46:55.332Z,1.20
2019-03-13T22:49:22.336Z,1.20
2019-03-13T22:51:49.564Z,1.40
2019-03-13T22:54:16.737Z,1.25
2019-03-13T22:56:43.753Z,1.00
2019-03-13T22:59:10.761Z,1.05
2019-03-13T23:01:39.133Z,0.80
2019-03-13T23:04:06.800Z,1.12
2019-03-13T23:06:34.006Z,1.10
2019-03-13T23:09:01.054Z,1.57
2019-03-13T23:11:28.101Z,1.00
2019-03-13T23:13:55.016Z,1.07
2019-03-13T23:16:23.927Z,1.10
2019-03-13T23:18:50.757Z,1.02
2019-03-13T23:21:18.023Z,1.37
2019-03-13T23:23:45.018Z,1.02
2019-03-13T23:26:12.113Z,1.20
2019-03-13T23:28:39.149Z,1.20
2019-03-13T23:31:06.159Z,1.07
2019-03-13T23:33:33.166Z,1.00
2019-03-13T23:36:00.375Z,1.07
2019-03-13T23:38:27.470Z,1.05
2019-03-13T23:40:54.460Z,1.00
2019-03-13T23:43:21.485Z,1.32
2019-03-13T23:45:48.545Z,1.15
2019-03-13T23:48:15.533Z,1.12
2019-03-13T23:50:42.600Z,1.10
2019-03-13T23:53:09.643Z,1.15
2019-03-13T23:55:36.521Z,1.10
2019-03-13T23:58:04.259Z,1.15
